sensor_id;sensor_type;location;lat;lon;timestamp;P1;durP1;ratioP1;P2;durP2;ratioP2
6775;SDS011;3425;51.376;5.222;2023-11-21T00:02:27;10.10;;;9.60;;
6775;SDS011;3425;51.376;5.222;2023-11-21T00:04:54;10.95;;;10.35;;
6775;SDS011;3425;51.376;5.222;2023-11-21T00:07:21;9.75;;;9.27;;
6775;SDS011;3425;51.376;5.222;2023-11-21T00:09:49;10.15;;;9.65;;
6775;SDS011;3425;51.376;5.222;2023-11-21T00:12:16;11.13;;;10.52;;
6775;SDS011;3425;51.376;5.222;2023-11-21T00:14:44;13.00;;;12.20;;
6775;SDS011;3425;51.376;5.222;2023-11-21T00:17:11;12.65;;;11.73;;
6775;SDS011;3425;51.376;5.222;2023-11-21T00:19:38;13.38;;;12.40;;
6775;SDS011;3425;51.376;5.222;2023-11-21T00:22:05;12.65;;;11.85;;
6775;SDS011;3425;51.376;5.222;2023-11-21T00:24:33;11.00;;;10.38;;
6775;SDS011;3425;51.376;5.222;2023-11-21T00:27:00;11.75;;;10.82;;
6775;SDS011;3425;51.376;5.222;2023-11-21T00:29:28;13.02;;;11.98;;
6775;SDS011;3425;51.376;5.222;2023-11-21T00:31:55;11.15;;;10.55;;
6775;SDS011;3425;51.376;5.222;2023-11-21T00:34:22;12.85;;;11.90;;
6775;SDS011;3425;51.376;5.222;2023-11-21T00:36:49;11.18;;;10.43;;
6775;SDS011;3425;51.376;5.222;2023-11-21T00:39:17;10.63;;;10.10;;
6775;SDS011;3425;51.376;5.222;2023-11-21T00:41:44;10.93;;;10.23;;
6775;SDS011;3425;51.376;5.222;2023-11-21T00:44:11;12.32;;;11.02;;
6775;SDS011;3425;51.376;5.222;2023-11-21T00:46:39;12.73;;;10.32;;
6775;SDS011;3425;51.376;5.222;2023-11-21T00:49:06;11.25;;;10.65;;
6775;SDS011;3425;51.376;5.222;2023-11-21T00:51:34;11.35;;;10.65;;
6775;SDS011;3425;51.376;5.222;2023-11-21T00:54:02;13.40;;;12.32;;
6775;SDS011;3425;51.376;5.222;2023-11-21T00:56:29;11.20;;;10.60;;
6775;SDS011;3425;51.376;5.222;2023-11-21T00:58:56;10.75;;;10.15;;
6775;SDS011;3425;51.376;5.222;2023-11-21T01:01:24;10.85;;;10.25;;
6775;SDS011;3425;51.376;5.222;2023-11-21T01:03:51;10.88;;;9.90;;
6775;SDS011;3425;51.376;5.222;2023-11-21T01:06:20;12.65;;;11.15;;
6775;SDS011;3425;51.376;5.222;2023-11-21T01:08:47;11.00;;;10.40;;
6775;SDS011;3425;51.376;5.222;2023-11-21T01:11:15;11.93;;;11.23;;
6775;SDS011;3425;51.376;5.222;2023-11-21T01:13:42;11.65;;;10.98;;
6775;SDS011;3425;51.376;5.222;2023-11-21T01:16:11;11.40;;;10.80;;
6775;SDS011;3425;51.376;5.222;2023-11-21T01:18:38;12.15;;;11.27;;
6775;SDS011;3425;51.376;5.222;2023-11-21T01:21:05;10.75;;;10.15;;
6775;SDS011;3425;51.376;5.222;2023-11-21T01:23:34;10.63;;;10.02;;
6775;SDS011;3425;51.376;5.222;2023-11-21T01:26:01;11.07;;;10.32;;
6775;SDS011;3425;51.376;5.222;2023-11-21T01:28:29;11.35;;;10.75;;
6775;SDS011;3425;51.376;5.222;2023-11-21T01:30:56;11.95;;;11.15;;
6775;SDS011;3425;51.376;5.222;2023-11-21T01:33:24;11.18;;;10.57;;
6775;SDS011;3425;51.376;5.222;2023-11-21T01:35:51;11.80;;;11.13;;
6775;SDS011;3425;51.376;5.222;2023-11-21T01:38:22;10.50;;;10.00;;
6775;SDS011;3425;51.376;5.222;2023-11-21T01:40:50;11.57;;;10.77;;
6775;SDS011;3425;51.376;5.222;2023-11-21T01:43:18;39.15;;;13.57;;
6775;SDS011;3425;51.376;5.222;2023-11-21T01:45:45;12.23;;;11.38;;
6775;SDS011;3425;51.376;5.222;2023-11-21T01:48:12;10.85;;;10.25;;
6775;SDS011;3425;51.376;5.222;2023-11-21T01:50:40;11.07;;;10.48;;
6775;SDS011;3425;51.376;5.222;2023-11-21T01:53:08;12.40;;;11.43;;
6775;SDS011;3425;51.376;5.222;2023-11-21T01:55:35;10.73;;;10.23;;
6775;SDS011;3425;51.376;5.222;2023-11-21T01:58:03;10.50;;;10.00;;
6775;SDS011;3425;51.376;5.222;2023-11-21T02:00:30;11.27;;;10.63;;
6775;SDS011;3425;51.376;5.222;2023-11-21T02:02:58;12.75;;;11.93;;
6775;SDS011;3425;51.376;5.222;2023-11-21T02:05:26;23.13;;;12.98;;
6775;SDS011;3425;51.376;5.222;2023-11-21T02:07:53;14.35;;;11.70;;
6775;SDS011;3425;51.376;5.222;2023-11-21T02:10:21;13.40;;;12.32;;
6775;SDS011;3425;51.376;5.222;2023-11-21T02:12:50;12.45;;;11.65;;
6775;SDS011;3425;51.376;5.222;2023-11-21T02:15:17;13.73;;;12.82;;
6775;SDS011;3425;51.376;5.222;2023-11-21T02:17:52;11.65;;;10.95;;
6775;SDS011;3425;51.376;5.222;2023-11-21T02:20:21;11.90;;;11.30;;
6775;SDS011;3425;51.376;5.222;2023-11-21T02:22:52;12.40;;;11.55;;
6775;SDS011;3425;51.376;5.222;2023-11-21T02:25:27;12.07;;;11.30;;
6775;SDS011;3425;51.376;5.222;2023-11-21T02:27:59;11.07;;;10.48;;
6775;SDS011;3425;51.376;5.222;2023-11-21T02:30:27;12.48;;;11.75;;
6775;SDS011;3425;51.376;5.222;2023-11-21T02:32:54;12.43;;;11.30;;
6775;SDS011;3425;51.376;5.222;2023-11-21T02:35:23;12.70;;;11.27;;
6775;SDS011;3425;51.376;5.222;2023-11-21T02:37:54;11.70;;;11.00;;
6775;SDS011;3425;51.376;5.222;2023-11-21T02:40:21;10.77;;;10.27;;
6775;SDS011;3425;51.376;5.222;2023-11-21T02:42:52;11.38;;;10.63;;
6775;SDS011;3425;51.376;5.222;2023-11-21T02:45:20;11.90;;;11.05;;
6775;SDS011;3425;51.376;5.222;2023-11-21T02:47:48;11.48;;;10.77;;
6775;SDS011;3425;51.376;5.222;2023-11-21T02:50:16;12.07;;;11.27;;
6775;SDS011;3425;51.376;5.222;2023-11-21T02:52:45;12.52;;;11.77;;
6775;SDS011;3425;51.376;5.222;2023-11-21T02:55:13;11.43;;;10.80;;
6775;SDS011;3425;51.376;5.222;2023-11-21T02:57:40;11.45;;;10.85;;
6775;SDS011;3425;51.376;5.222;2023-11-21T03:00:13;11.57;;;10.95;;
6775;SDS011;3425;51.376;5.222;2023-11-21T03:02:41;10.65;;;10.15;;
6775;SDS011;3425;51.376;5.222;2023-11-21T03:05:09;12.90;;;12.00;;
6775;SDS011;3425;51.376;5.222;2023-11-21T03:07:37;12.88;;;11.57;;
6775;SDS011;3425;51.376;5.222;2023-11-21T03:10:04;11.75;;;11.05;;
6775;SDS011;3425;51.376;5.222;2023-11-21T03:12:32;11.75;;;11.15;;
6775;SDS011;3425;51.376;5.222;2023-11-21T03:14:59;12.80;;;11.90;;
6775;SDS011;3425;51.376;5.222;2023-11-21T03:17:28;11.88;;;11.18;;
6775;SDS011;3425;51.376;5.222;2023-11-21T03:19:56;11.23;;;10.65;;
6775;SDS011;3425;51.376;5.222;2023-11-21T03:22:23;12.20;;;11.50;;
6775;SDS011;3425;51.376;5.222;2023-11-21T03:24:51;11.07;;;10.57;;
6775;SDS011;3425;51.376;5.222;2023-11-21T03:27:18;11.00;;;10.40;;
6775;SDS011;3425;51.376;5.222;2023-11-21T03:29:45;13.15;;;12.27;;
6775;SDS011;3425;51.376;5.222;2023-11-21T03:32:13;10.90;;;10.40;;
6775;SDS011;3425;51.376;5.222;2023-11-21T03:34:53;11.20;;;10.63;;
6775;SDS011;3425;51.376;5.222;2023-11-21T03:37:22;11.48;;;10.70;;
6775;SDS011;3425;51.376;5.222;2023-11-21T03:39:49;11.00;;;10.50;;
6775;SDS011;3425;51.376;5.222;2023-11-21T03:42:16;12.13;;;11.40;;
6775;SDS011;3425;51.376;5.222;2023-11-21T03:44:43;11.35;;;10.75;;
6775;SDS011;3425;51.376;5.222;2023-11-21T03:47:11;12.32;;;11.52;;
6775;SDS011;3425;51.376;5.222;2023-11-21T03:49:40;11.57;;;10.70;;
6775;SDS011;3425;51.376;5.222;2023-11-21T03:52:07;11.35;;;10.70;;
6775;SDS011;3425;51.376;5.222;2023-11-21T03:54:35;10.70;;;10.20;;
6775;SDS011;3425;51.376;5.222;2023-11-21T03:57:03;11.35;;;10.82;;
6775;SDS011;3425;51.376;5.222;2023-11-21T03:59:30;12.82;;;12.02;;
6775;SDS011;3425;51.376;5.222;2023-11-21T04:01:57;12.20;;;11.50;;
6775;SDS011;3425;51.376;5.222;2023-11-21T04:04:24;11.98;;;11.38;;
6775;SDS011;3425;51.376;5.222;2023-11-21T04:06:52;12.93;;;12.23;;
6775;SDS011;3425;51.376;5.222;2023-11-21T04:09:19;11.73;;;11.13;;
6775;SDS011;3425;51.376;5.222;2023-11-21T04:11:48;11.55;;;10.98;;
6775;SDS011;3425;51.376;5.222;2023-11-21T04:14:17;12.60;;;11.73;;
6775;SDS011;3425;51.376;5.222;2023-11-21T04:16:45;11.25;;;10.75;;
6775;SDS011;3425;51.376;5.222;2023-11-21T04:19:12;11.60;;;11.00;;
6775;SDS011;3425;51.376;5.222;2023-11-21T04:21:43;12.13;;;11.52;;
6775;SDS011;3425;51.376;5.222;2023-11-21T04:24:10;12.27;;;11.68;;
6775;SDS011;3425;51.376;5.222;2023-11-21T04:26:38;11.82;;;11.23;;
6775;SDS011;3425;51.376;5.222;2023-11-21T04:29:05;11.40;;;10.90;;
6775;SDS011;3425;51.376;5.222;2023-11-21T04:31:32;11.88;;;11.25;;
6775;SDS011;3425;51.376;5.222;2023-11-21T04:33:59;12.30;;;11.60;;
6775;SDS011;3425;51.376;5.222;2023-11-21T04:36:27;12.27;;;11.57;;
6775;SDS011;3425;51.376;5.222;2023-11-21T04:38:56;13.40;;;12.23;;
6775;SDS011;3425;51.376;5.222;2023-11-21T04:41:24;12.10;;;11.40;;
6775;SDS011;3425;51.376;5.222;2023-11-21T04:43:51;12.23;;;11.63;;
6775;SDS011;3425;51.376;5.222;2023-11-21T04:46:18;12.27;;;11.63;;
6775;SDS011;3425;51.376;5.222;2023-11-21T04:48:45;12.35;;;11.75;;
6775;SDS011;3425;51.376;5.222;2023-11-21T04:51:13;13.27;;;12.57;;
6775;SDS011;3425;51.376;5.222;2023-11-21T04:53:40;14.07;;;12.95;;
6775;SDS011;3425;51.376;5.222;2023-11-21T04:56:07;13.05;;;12.35;;
6775;SDS011;3425;51.376;5.222;2023-11-21T04:58:34;13.20;;;12.30;;
6775;SDS011;3425;51.376;5.222;2023-11-21T05:01:02;14.18;;;13.27;;
6775;SDS011;3425;51.376;5.222;2023-11-21T05:03:33;16.30;;;15.10;;
6775;SDS011;3425;51.376;5.222;2023-11-21T05:06:01;14.40;;;13.60;;
6775;SDS011;3425;51.376;5.222;2023-11-21T05:08:29;13.68;;;12.98;;
6775;SDS011;3425;51.376;5.222;2023-11-21T05:10:57;13.38;;;12.68;;
6775;SDS011;3425;51.376;5.222;2023-11-21T05:13:24;13.07;;;12.38;;
6775;SDS011;3425;51.376;5.222;2023-11-21T05:15:54;13.48;;;12.77;;
6775;SDS011;3425;51.376;5.222;2023-11-21T05:18:24;14.15;;;13.18;;
6775;SDS011;3425;51.376;5.222;2023-11-21T05:20:53;14.73;;;13.75;;
6775;SDS011;3425;51.376;5.222;2023-11-21T05:23:20;15.35;;;13.80;;
6775;SDS011;3425;51.376;5.222;2023-11-21T05:25:48;15.10;;;14.15;;
6775;SDS011;3425;51.376;5.222;2023-11-21T05:28:15;13.00;;;12.30;;
6775;SDS011;3425;51.376;5.222;2023-11-21T05:30:42;13.18;;;12.48;;
6775;SDS011;3425;51.376;5.222;2023-11-21T05:33:10;13.35;;;12.65;;
6775;SDS011;3425;51.376;5.222;2023-11-21T05:35:37;13.63;;;12.93;;
6775;SDS011;3425;51.376;5.222;2023-11-21T05:38:04;13.60;;;12.90;;
6775;SDS011;3425;51.376;5.222;2023-11-21T05:40:32;14.05;;;13.25;;
6775;SDS011;3425;51.376;5.222;2023-11-21T05:42:59;14.15;;;13.38;;
6775;SDS011;3425;51.376;5.222;2023-11-21T05:45:26;14.30;;;13.50;;
6775;SDS011;3425;51.376;5.222;2023-11-21T05:47:57;14.05;;;13.25;;
6775;SDS011;3425;51.376;5.222;2023-11-21T05:50:24;13.85;;;13.10;;
6775;SDS011;3425;51.376;5.222;2023-11-21T05:52:51;13.80;;;12.93;;
6775;SDS011;3425;51.376;5.222;2023-11-21T05:55:18;14.35;;;12.95;;
6775;SDS011;3425;51.376;5.222;2023-11-21T05:57:47;14.65;;;13.85;;
6775;SDS011;3425;51.376;5.222;2023-11-21T06:00:15;17.50;;;14.48;;
6775;SDS011;3425;51.376;5.222;2023-11-21T06:02:49;15.45;;;14.38;;
6775;SDS011;3425;51.376;5.222;2023-11-21T06:05:17;15.13;;;14.18;;
6775;SDS011;3425;51.376;5.222;2023-11-21T06:07:45;16.05;;;15.05;;
6775;SDS011;3425;51.376;5.222;2023-11-21T06:10:13;14.68;;;13.77;;
6775;SDS011;3425;51.376;5.222;2023-11-21T06:12:41;15.95;;;14.75;;
6775;SDS011;3425;51.376;5.222;2023-11-21T06:15:10;14.52;;;13.73;;
6775;SDS011;3425;51.376;5.222;2023-11-21T06:17:41;15.18;;;14.18;;
6775;SDS011;3425;51.376;5.222;2023-11-21T06:20:09;14.98;;;14.07;;
6775;SDS011;3425;51.376;5.222;2023-11-21T06:22:41;14.50;;;13.73;;
6775;SDS011;3425;51.376;5.222;2023-11-21T06:25:10;14.82;;;14.02;;
6775;SDS011;3425;51.376;5.222;2023-11-21T06:27:43;14.00;;;13.30;;
6775;SDS011;3425;51.376;5.222;2023-11-21T06:30:11;14.55;;;13.82;;
6775;SDS011;3425;51.376;5.222;2023-11-21T06:32:40;15.25;;;14.45;;
6775;SDS011;3425;51.376;5.222;2023-11-21T06:35:07;16.30;;;15.30;;
6775;SDS011;3425;51.376;5.222;2023-11-21T06:37:36;16.15;;;15.05;;
6775;SDS011;3425;51.376;5.222;2023-11-21T06:40:04;19.00;;;16.52;;
6775;SDS011;3425;51.376;5.222;2023-11-21T06:42:32;14.90;;;14.07;;
6775;SDS011;3425;51.376;5.222;2023-11-21T06:45:00;16.73;;;15.15;;
6775;SDS011;3425;51.376;5.222;2023-11-21T06:47:30;16.88;;;15.32;;
6775;SDS011;3425;51.376;5.222;2023-11-21T06:49:58;14.45;;;13.75;;
6775;SDS011;3425;51.376;5.222;2023-11-21T06:52:26;15.45;;;14.65;;
6775;SDS011;3425;51.376;5.222;2023-11-21T06:54:53;15.13;;;14.23;;
6775;SDS011;3425;51.376;5.222;2023-11-21T06:57:22;16.15;;;15.23;;
6775;SDS011;3425;51.376;5.222;2023-11-21T06:59:50;15.65;;;14.15;;
6775;SDS011;3425;51.376;5.222;2023-11-21T07:02:17;16.58;;;15.40;;
6775;SDS011;3425;51.376;5.222;2023-11-21T07:04:45;14.85;;;13.57;;
6775;SDS011;3425;51.376;5.222;2023-11-21T07:07:12;16.35;;;14.75;;
6775;SDS011;3425;51.376;5.222;2023-11-21T07:09:40;14.20;;;13.50;;
6775;SDS011;3425;51.376;5.222;2023-11-21T07:12:07;17.08;;;15.57;;
6775;SDS011;3425;51.376;5.222;2023-11-21T07:14:34;15.77;;;14.65;;
6775;SDS011;3425;51.376;5.222;2023-11-21T07:17:01;16.05;;;15.05;;
6775;SDS011;3425;51.376;5.222;2023-11-21T07:19:29;16.00;;;14.98;;
6775;SDS011;3425;51.376;5.222;2023-11-21T07:21:56;16.25;;;15.23;;
6775;SDS011;3425;51.376;5.222;2023-11-21T07:24:24;16.83;;;15.73;;
6775;SDS011;3425;51.376;5.222;2023-11-21T07:26:52;15.77;;;14.77;;
6775;SDS011;3425;51.376;5.222;2023-11-21T07:29:26;18.60;;;16.80;;
6775;SDS011;3425;51.376;5.222;2023-11-21T07:31:55;16.40;;;15.38;;
6775;SDS011;3425;51.376;5.222;2023-11-21T07:34:22;16.10;;;15.20;;
6775;SDS011;3425;51.376;5.222;2023-11-21T07:36:50;16.30;;;15.20;;
6775;SDS011;3425;51.376;5.222;2023-11-21T07:39:17;17.20;;;16.10;;
6775;SDS011;3425;51.376;5.222;2023-11-21T07:41:44;16.30;;;15.18;;
6775;SDS011;3425;51.376;5.222;2023-11-21T07:44:18;17.30;;;16.00;;
6775;SDS011;3425;51.376;5.222;2023-11-21T07:46:46;15.95;;;15.05;;
6775;SDS011;3425;51.376;5.222;2023-11-21T07:49:13;17.55;;;16.30;;
6775;SDS011;3425;51.376;5.222;2023-11-21T07:51:46;16.88;;;15.77;;
6775;SDS011;3425;51.376;5.222;2023-11-21T07:54:14;15.88;;;14.88;;
6775;SDS011;3425;51.376;5.222;2023-11-21T07:56:42;34.25;;;17.88;;
6775;SDS011;3425;51.376;5.222;2023-11-21T07:59:09;15.88;;;14.98;;
6775;SDS011;3425;51.376;5.222;2023-11-21T08:01:37;16.27;;;15.27;;
6775;SDS011;3425;51.376;5.222;2023-11-21T08:04:06;17.80;;;16.60;;
6775;SDS011;3425;51.376;5.222;2023-11-21T08:06:34;17.05;;;15.82;;
6775;SDS011;3425;51.376;5.222;2023-11-21T08:09:01;17.20;;;16.20;;
6775;SDS011;3425;51.376;5.222;2023-11-21T08:11:29;17.70;;;16.15;;
6775;SDS011;3425;51.376;5.222;2023-11-21T08:13:58;16.67;;;15.35;;
6775;SDS011;3425;51.376;5.222;2023-11-21T08:16:26;16.55;;;15.35;;
6775;SDS011;3425;51.376;5.222;2023-11-21T08:18:54;14.55;;;13.80;;
6775;SDS011;3425;51.376;5.222;2023-11-21T08:21:21;21.60;;;15.30;;
6775;SDS011;3425;51.376;5.222;2023-11-21T08:23:55;25.05;;;15.98;;
6775;SDS011;3425;51.376;5.222;2023-11-21T08:26:22;17.05;;;15.95;;
6775;SDS011;3425;51.376;5.222;2023-11-21T08:28:50;18.70;;;17.00;;
6775;SDS011;3425;51.376;5.222;2023-11-21T08:31:28;17.38;;;16.05;;
6775;SDS011;3425;51.376;5.222;2023-11-21T08:33:55;16.05;;;15.15;;
6775;SDS011;3425;51.376;5.222;2023-11-21T08:36:22;16.50;;;15.57;;
6775;SDS011;3425;51.376;5.222;2023-11-21T08:38:51;15.38;;;14.50;;
6775;SDS011;3425;51.376;5.222;2023-11-21T08:41:18;15.90;;;15.00;;
6775;SDS011;3425;51.376;5.222;2023-11-21T08:43:47;16.95;;;15.43;;
6775;SDS011;3425;51.376;5.222;2023-11-21T08:46:15;16.58;;;15.13;;
6775;SDS011;3425;51.376;5.222;2023-11-21T08:48:44;31.85;;;16.77;;
6775;SDS011;3425;51.376;5.222;2023-11-21T08:51:11;18.45;;;17.05;;
6775;SDS011;3425;51.376;5.222;2023-11-21T08:53:40;18.38;;;16.42;;
6775;SDS011;3425;51.376;5.222;2023-11-21T08:56:07;16.58;;;15.55;;
6775;SDS011;3425;51.376;5.222;2023-11-21T08:58:35;15.85;;;14.85;;
6775;SDS011;3425;51.376;5.222;2023-11-21T09:01:04;15.98;;;14.98;;
6775;SDS011;3425;51.376;5.222;2023-11-21T09:03:33;16.63;;;15.18;;
6775;SDS011;3425;51.376;5.222;2023-11-21T09:06:01;16.17;;;15.18;;
6775;SDS011;3425;51.376;5.222;2023-11-21T09:08:30;15.18;;;14.38;;
6775;SDS011;3425;51.376;5.222;2023-11-21T09:10:58;16.40;;;15.13;;
6775;SDS011;3425;51.376;5.222;2023-11-21T09:13:25;16.55;;;15.32;;
6775;SDS011;3425;51.376;5.222;2023-11-21T09:15:54;16.80;;;15.70;;
6775;SDS011;3425;51.376;5.222;2023-11-21T09:18:21;16.83;;;15.73;;
6775;SDS011;3425;51.376;5.222;2023-11-21T09:20:48;16.38;;;15.48;;
6775;SDS011;3425;51.376;5.222;2023-11-21T09:23:15;19.60;;;17.80;;
6775;SDS011;3425;51.376;5.222;2023-11-21T09:25:43;16.40;;;15.43;;
6775;SDS011;3425;51.376;5.222;2023-11-21T09:28:12;16.20;;;14.85;;
6775;SDS011;3425;51.376;5.222;2023-11-21T09:30:40;16.08;;;15.07;;
6775;SDS011;3425;51.376;5.222;2023-11-21T09:33:07;18.20;;;16.73;;
6775;SDS011;3425;51.376;5.222;2023-11-21T09:35:37;15.93;;;15.02;;
6775;SDS011;3425;51.376;5.222;2023-11-21T09:38:04;15.75;;;14.85;;
6775;SDS011;3425;51.376;5.222;2023-11-21T09:40:36;15.30;;;14.48;;
6775;SDS011;3425;51.376;5.222;2023-11-21T09:43:08;17.13;;;16.02;;
6775;SDS011;3425;51.376;5.222;2023-11-21T09:45:56;16.63;;;15.52;;
6775;SDS011;3425;51.376;5.222;2023-11-21T09:48:26;16.73;;;15.63;;
6775;SDS011;3425;51.376;5.222;2023-11-21T09:50:53;15.95;;;14.65;;
6775;SDS011;3425;51.376;5.222;2023-11-21T09:53:21;17.30;;;15.93;;
6775;SDS011;3425;51.376;5.222;2023-11-21T09:55:51;17.95;;;16.48;;
6775;SDS011;3425;51.376;5.222;2023-11-21T09:58:20;16.38;;;15.43;;
6775;SDS011;3425;51.376;5.222;2023-11-21T10:00:52;17.30;;;15.88;;
6775;SDS011;3425;51.376;5.222;2023-11-21T10:03:20;18.63;;;16.08;;
6775;SDS011;3425;51.376;5.222;2023-11-21T10:05:48;16.15;;;15.25;;
6775;SDS011;3425;51.376;5.222;2023-11-21T10:08:16;16.45;;;15.45;;
6775;SDS011;3425;51.376;5.222;2023-11-21T10:10:44;16.60;;;15.68;;
6775;SDS011;3425;51.376;5.222;2023-11-21T10:13:12;17.02;;;15.95;;
6775;SDS011;3425;51.376;5.222;2023-11-21T10:15:43;19.92;;;16.13;;
6775;SDS011;3425;51.376;5.222;2023-11-21T10:18:15;18.65;;;17.35;;
6775;SDS011;3425;51.376;5.222;2023-11-21T10:20:42;16.48;;;15.50;;
6775;SDS011;3425;51.376;5.222;2023-11-21T10:23:12;19.33;;;17.08;;
6775;SDS011;3425;51.376;5.222;2023-11-21T10:25:42;16.35;;;15.40;;
6775;SDS011;3425;51.376;5.222;2023-11-21T10:28:09;18.67;;;17.27;;
6775;SDS011;3425;51.376;5.222;2023-11-21T10:30:37;19.45;;;18.05;;
6775;SDS011;3425;51.376;5.222;2023-11-21T10:33:04;17.38;;;16.23;;
6775;SDS011;3425;51.376;5.222;2023-11-21T10:35:47;17.17;;;15.85;;
6775;SDS011;3425;51.376;5.222;2023-11-21T10:38:18;17.55;;;16.30;;
6775;SDS011;3425;51.376;5.222;2023-11-21T10:40:47;17.40;;;15.85;;
6775;SDS011;3425;51.376;5.222;2023-11-21T10:43:15;17.08;;;15.82;;
6775;SDS011;3425;51.376;5.222;2023-11-21T10:45:43;16.63;;;15.65;;
6775;SDS011;3425;51.376;5.222;2023-11-21T10:48:12;16.00;;;15.10;;
6775;SDS011;3425;51.376;5.222;2023-11-21T10:50:44;16.88;;;15.88;;
6775;SDS011;3425;51.376;5.222;2023-11-21T10:53:11;16.85;;;15.85;;
6775;SDS011;3425;51.376;5.222;2023-11-21T10:55:39;16.35;;;15.45;;
6775;SDS011;3425;51.376;5.222;2023-11-21T10:58:06;17.38;;;16.00;;
6775;SDS011;3425;51.376;5.222;2023-11-21T11:00:36;16.85;;;15.73;;
6775;SDS011;3425;51.376;5.222;2023-11-21T11:03:04;16.83;;;15.85;;
6775;SDS011;3425;51.376;5.222;2023-11-21T11:05:34;16.13;;;15.23;;
6775;SDS011;3425;51.376;5.222;2023-11-21T11:08:06;16.63;;;15.50;;
6775;SDS011;3425;51.376;5.222;2023-11-21T11:10:35;16.05;;;15.15;;
6775;SDS011;3425;51.376;5.222;2023-11-21T11:13:02;16.35;;;15.43;;
6775;SDS011;3425;51.376;5.222;2023-11-21T11:15:30;16.63;;;15.52;;
6775;SDS011;3425;51.376;5.222;2023-11-21T11:17:57;15.55;;;14.65;;
6775;SDS011;3425;51.376;5.222;2023-11-21T11:20:30;15.68;;;14.80;;
6775;SDS011;3425;51.376;5.222;2023-11-21T11:23:25;16.00;;;15.00;;
6775;SDS011;3425;51.376;5.222;2023-11-21T11:31:14;15.90;;;14.98;;
6775;SDS011;3425;51.376;5.222;2023-11-21T11:38:49;17.00;;;15.85;;
6775;SDS011;3425;51.376;5.222;2023-11-21T11:41:34;16.40;;;15.20;;
6775;SDS011;3425;51.376;5.222;2023-11-21T11:44:01;16.15;;;15.02;;
6775;SDS011;3425;51.376;5.222;2023-11-21T11:46:44;15.18;;;14.38;;
6775;SDS011;3425;51.376;5.222;2023-11-21T11:49:28;15.45;;;14.55;;
6775;SDS011;3425;51.376;5.222;2023-11-21T11:54:48;16.30;;;14.85;;
6775;SDS011;3425;51.376;5.222;2023-11-21T11:57:16;14.30;;;13.50;;
6775;SDS011;3425;51.376;5.222;2023-11-21T12:00:17;15.20;;;14.20;;
6775;SDS011;3425;51.376;5.222;2023-11-21T12:02:38;14.65;;;13.85;;
6775;SDS011;3425;51.376;5.222;2023-11-21T12:05:25;14.60;;;13.80;;
6775;SDS011;3425;51.376;5.222;2023-11-21T12:07:56;14.73;;;13.82;;
6775;SDS011;3425;51.376;5.222;2023-11-21T12:10:24;14.68;;;13.85;;
6775;SDS011;3425;51.376;5.222;2023-11-21T12:12:52;14.95;;;14.15;;
6775;SDS011;3425;51.376;5.222;2023-11-21T12:15:20;16.30;;;14.85;;
6775;SDS011;3425;51.376;5.222;2023-11-21T12:17:48;14.82;;;14.02;;
6775;SDS011;3425;51.376;5.222;2023-11-21T12:20:18;15.48;;;14.52;;
6775;SDS011;3425;51.376;5.222;2023-11-21T12:22:52;14.70;;;13.90;;
6775;SDS011;3425;51.376;5.222;2023-11-21T12:25:23;15.05;;;14.25;;
6775;SDS011;3425;51.376;5.222;2023-11-21T12:27:53;14.82;;;14.00;;
6775;SDS011;3425;51.376;5.222;2023-11-21T12:30:24;15.25;;;14.43;;
6775;SDS011;3425;51.376;5.222;2023-11-21T12:32:54;14.90;;;14.10;;
6775;SDS011;3425;51.376;5.222;2023-11-21T12:35:23;15.23;;;14.43;;
6775;SDS011;3425;51.376;5.222;2023-11-21T12:37:51;15.80;;;14.70;;
6775;SDS011;3425;51.376;5.222;2023-11-21T12:40:18;15.60;;;14.60;;
6775;SDS011;3425;51.376;5.222;2023-11-21T12:42:46;15.40;;;14.60;;
6775;SDS011;3425;51.376;5.222;2023-11-21T12:45:21;15.50;;;14.70;;
6775;SDS011;3425;51.376;5.222;2023-11-21T12:47:49;15.10;;;14.30;;
6775;SDS011;3425;51.376;5.222;2023-11-21T12:50:21;16.00;;;14.70;;
6775;SDS011;3425;51.376;5.222;2023-11-21T12:52:59;15.82;;;14.88;;
6775;SDS011;3425;51.376;5.222;2023-11-21T12:55:29;15.85;;;14.85;;
6775;SDS011;3425;51.376;5.222;2023-11-21T12:57:56;15.38;;;14.43;;
6775;SDS011;3425;51.376;5.222;2023-11-21T13:00:28;18.13;;;16.33;;
6775;SDS011;3425;51.376;5.222;2023-11-21T13:02:58;15.38;;;14.43;;
6775;SDS011;3425;51.376;5.222;2023-11-21T13:05:29;14.95;;;13.93;;
6775;SDS011;3425;51.376;5.222;2023-11-21T13:07:58;14.75;;;13.95;;
6775;SDS011;3425;51.376;5.222;2023-11-21T13:10:34;15.55;;;14.50;;
6775;SDS011;3425;51.376;5.222;2023-11-21T13:13:04;14.63;;;13.82;;
6775;SDS011;3425;51.376;5.222;2023-11-21T13:15:31;15.18;;;14.02;;
6775;SDS011;3425;51.376;5.222;2023-11-21T13:18:01;14.65;;;13.85;;
6775;SDS011;3425;51.376;5.222;2023-11-21T13:20:28;14.73;;;13.93;;
6775;SDS011;3425;51.376;5.222;2023-11-21T13:22:56;14.80;;;13.80;;
6775;SDS011;3425;51.376;5.222;2023-11-21T13:25:25;13.85;;;13.15;;
6775;SDS011;3425;51.376;5.222;2023-11-21T13:27:58;14.10;;;13.40;;
6775;SDS011;3425;51.376;5.222;2023-11-21T13:30:27;13.80;;;13.10;;
6775;SDS011;3425;51.376;5.222;2023-11-21T13:33:00;14.80;;;14.00;;
6775;SDS011;3425;51.376;5.222;2023-11-21T13:35:35;14.52;;;13.73;;
6775;SDS011;3425;51.376;5.222;2023-11-21T13:40:37;14.63;;;13.82;;
6775;SDS011;3425;51.376;5.222;2023-11-21T13:43:13;14.48;;;13.68;;
6775;SDS011;3425;51.376;5.222;2023-11-21T13:45:41;14.55;;;13.70;;
6775;SDS011;3425;51.376;5.222;2023-11-21T13:48:11;14.73;;;13.90;;
6775;SDS011;3425;51.376;5.222;2023-11-21T13:50:45;14.38;;;13.57;;
6775;SDS011;3425;51.376;5.222;2023-11-21T13:53:15;13.57;;;12.88;;
6775;SDS011;3425;51.376;5.222;2023-11-21T13:55:49;13.77;;;13.07;;
6775;SDS011;3425;51.376;5.222;2023-11-21T13:58:17;14.13;;;13.40;;
6775;SDS011;3425;51.376;5.222;2023-11-21T14:00:49;13.60;;;12.90;;
6775;SDS011;3425;51.376;5.222;2023-11-21T14:03:23;13.30;;;12.60;;
6775;SDS011;3425;51.376;5.222;2023-11-21T14:05:59;12.52;;;11.93;;
6775;SDS011;3425;51.376;5.222;2023-11-21T14:08:27;12.88;;;12.15;;
6775;SDS011;3425;51.376;5.222;2023-11-21T14:10:55;12.20;;;11.40;;
6775;SDS011;3425;51.376;5.222;2023-11-21T14:13:23;11.18;;;10.68;;
6775;SDS011;3425;51.376;5.222;2023-11-21T14:15:51;11.38;;;10.68;;
6775;SDS011;3425;51.376;5.222;2023-11-21T14:18:24;9.70;;;9.20;;
6775;SDS011;3425;51.376;5.222;2023-11-21T14:20:57;8.73;;;8.27;;
6775;SDS011;3425;51.376;5.222;2023-11-21T14:23:25;6.97;;;6.68;;
6775;SDS011;3425;51.376;5.222;2023-11-21T14:25:52;6.65;;;6.35;;
6775;SDS011;3425;51.376;5.222;2023-11-21T14:28:19;6.32;;;6.03;;
6775;SDS011;3425;51.376;5.222;2023-11-21T14:30:46;7.30;;;6.90;;
6775;SDS011;3425;51.376;5.222;2023-11-21T14:33:14;6.22;;;5.93;;
6775;SDS011;3425;51.376;5.222;2023-11-21T14:35:42;5.38;;;5.18;;
6775;SDS011;3425;51.376;5.222;2023-11-21T14:38:11;4.00;;;3.80;;
6775;SDS011;3425;51.376;5.222;2023-11-21T14:40:40;3.67;;;3.38;;
6775;SDS011;3425;51.376;5.222;2023-11-21T14:43:07;2.80;;;2.70;;
6775;SDS011;3425;51.376;5.222;2023-11-21T14:45:35;4.03;;;3.55;;
6775;SDS011;3425;51.376;5.222;2023-11-21T14:48:02;2.78;;;2.67;;
6775;SDS011;3425;51.376;5.222;2023-11-21T14:50:34;2.80;;;2.65;;
6775;SDS011;3425;51.376;5.222;2023-11-21T14:53:25;4.60;;;3.08;;
6775;SDS011;3425;51.376;5.222;2023-11-21T14:56:10;3.60;;;3.35;;
6775;SDS011;3425;51.376;5.222;2023-11-21T14:58:37;4.57;;;3.83;;
6775;SDS011;3425;51.376;5.222;2023-11-21T15:01:06;3.20;;;3.00;;
6775;SDS011;3425;51.376;5.222;2023-11-21T15:03:34;2.78;;;2.58;;
6775;SDS011;3425;51.376;5.222;2023-11-21T15:06:10;2.22;;;2.13;;
6775;SDS011;3425;51.376;5.222;2023-11-21T15:08:56;8.07;;;2.33;;
6775;SDS011;3425;51.376;5.222;2023-11-21T15:11:26;2.58;;;2.38;;
6775;SDS011;3425;51.376;5.222;2023-11-21T15:13:57;1.40;;;1.40;;
6775;SDS011;3425;51.376;5.222;2023-11-21T15:16:25;6.43;;;2.72;;
6775;SDS011;3425;51.376;5.222;2023-11-21T15:18:52;2.00;;;1.90;;